Time;durP1;ratioP1;P1;durP2;ratioP2;P2;SDS_P1;SDS_P2;PMS_P1;PMS_P2;Temp;Humidity;BMP_temperature;BMP_pressure;BME280_temperature;BME280_humidity;BME280_pressure;Samples;Min_cycle;Max_cycle;Signal;HPM_P1;HPM_P2
2023/04/11 00:00:11;;;;;;;2.62;1.10;;;15.10;99.90;;;;;;1878562;75;21138;-81
2023/04/11 00:03:03;;;;;;;3.08;1.25;;;15.00;99.90;;;;;;1872540;76;21169;-82
2023/04/11 00:05:54;;;;;;;1.65;0.90;;;14.90;99.90;;;;;;1886255;75;21159;-81
2023/04/11 00:08:46;;;;;;;2.70;1.30;;;14.90;99.90;;;;;;1879902;75;21098;-82
2023/04/11 00:11:38;;;;;;;2.27;1.00;;;14.80;99.90;;;;;;1874754;75;21156;-82
2023/04/11 00:14:32;;;;;;;2.20;1.10;;;14.80;99.90;;;;;;1873792;75;21122;-82
2023/04/11 00:17:23;;;;;;;3.65;1.02;;;14.80;99.90;;;;;;1898136;74;21207;-83
2023/04/11 00:22:54;;;;;;;2.42;1.00;;;14.80;99.90;;;;;;1941190;72;22185;-82
2023/04/11 00:28:24;;;;;;;1.32;0.93;;;14.80;99.90;;;;;;1950417;72;22247;-82
2023/04/11 00:31:15;;;;;;;2.70;1.00;;;14.80;99.90;;;;;;1903709;73;21140;-82
2023/04/11 00:34:06;;;;;;;1.90;0.90;;;14.70;99.90;;;;;;1904768;75;21110;-82
2023/04/11 00:39:39;;;;;;;3.02;1.22;;;14.60;99.90;;;;;;1953086;72;22150;-82
2023/04/11 00:42:31;;;;;;;2.35;0.90;;;14.60;99.90;;;;;;1922104;74;21071;-82
2023/04/11 00:45:23;;;;;;;1.77;1.10;;;14.60;99.90;;;;;;1904725;75;21148;-82
2023/04/11 00:48:15;;;;;;;1.27;0.90;;;14.60;99.90;;;;;;1909392;74;21093;-82
2023/04/11 00:51:07;;;;;;;2.77;1.10;;;14.50;99.90;;;;;;1911005;74;21153;-82
2023/04/11 00:54:00;;;;;;;1.50;0.90;;;14.50;99.90;;;;;;1907942;73;21543;-82
2023/04/11 00:59:33;;;;;;;2.17;1.02;;;14.60;99.90;;;;;;1940297;72;22339;-81
2023/04/11 01:07:53;;;;;;;4.80;0.90;;;14.70;99.90;;;;;;1943610;72;22174;-81
2023/04/11 01:13:25;;;;;;;2.30;1.05;;;14.80;99.90;;;;;;1931240;72;22192;-81
2023/04/11 01:16:20;;;;;;;1.47;0.80;;;14.80;99.90;;;;;;1906272;73;21056;-82
2023/04/11 01:21:53;;;;;;;1.70;1.00;;;14.60;99.90;;;;;;1952465;72;22149;-82
2023/04/11 01:24:44;;;;;;;2.42;1.02;;;14.60;99.90;;;;;;1905118;74;21184;-82
2023/04/11 01:30:17;;;;;;;2.00;0.90;;;14.50;99.90;;;;;;1929783;72;22256;-81
2023/04/11 01:33:10;;;;;;;2.47;1.27;;;14.50;99.90;;;;;;1873322;75;21107;-83
2023/04/11 01:38:41;;;;;;;1.80;0.90;;;14.60;99.90;;;;;;1942612;72;22318;-82
2023/04/11 01:44:12;;;;;;;3.70;1.17;;;14.50;99.90;;;;;;1934379;72;22122;-81
2023/04/11 01:47:04;;;;;;;1.60;1.10;;;14.40;99.90;;;;;;1888721;75;21123;-81
2023/04/11 01:49:56;;;;;;;2.75;1.10;;;14.40;99.90;;;;;;1896311;75;21185;-82
2023/04/11 01:52:48;;;;;;;1.80;0.82;;;14.30;99.90;;;;;;1884604;75;21062;-83
2023/04/11 01:55:39;;;;;;;2.55;1.10;;;14.20;99.90;;;;;;1903975;75;21143;-82
2023/04/11 02:01:10;;;;;;;1.92;1.10;;;14.30;99.90;;;;;;1935073;72;22193;-81
2023/04/11 02:04:02;;;;;;;2.20;1.20;;;14.30;99.90;;;;;;1918227;73;21051;-83
2023/04/11 02:06:54;;;;;;;2.02;1.10;;;14.40;99.90;;;;;;1924029;74;21126;-82
2023/04/11 02:09:46;;;;;;;5.25;1.10;;;14.40;99.90;;;;;;1906918;74;21190;-82
2023/04/11 02:15:20;;;;;;;2.33;1.05;;;14.40;99.90;;;;;;1947091;72;22341;-81
2023/04/11 02:20:52;;;;;;;2.52;0.90;;;14.50;99.90;;;;;;1939038;72;22114;-82
2023/04/11 02:23:43;;;;;;;1.67;1.27;;;14.50;99.90;;;;;;1915524;75;21160;-82
2023/04/11 02:26:35;;;;;;;2.65;1.02;;;14.50;99.90;;;;;;1904757;75;21103;-82
2023/04/11 02:29:26;;;;;;;3.55;1.05;;;14.50;99.90;;;;;;1909275;75;21054;-82
2023/04/11 02:34:55;;;;;;;2.08;1.00;;;14.40;99.90;;;;;;1942003;72;22244;-81
2023/04/11 02:37:50;;;;;;;1.77;1.00;;;14.30;99.90;;;;;;1910646;75;21570;-81
2023/04/11 02:40:41;;;;;;;2.05;1.20;;;14.30;99.90;;;;;;1900528;75;21149;-81
2023/04/11 02:43:33;;;;;;;1.22;0.70;;;14.30;99.90;;;;;;1906002;75;21099;-81
2023/04/11 02:46:25;;;;;;;1.45;0.80;;;14.30;99.90;;;;;;1890368;75;21102;-81
2023/04/11 02:49:16;;;;;;;2.37;1.15;;;14.20;99.90;;;;;;1887537;75;21160;-81
2023/04/11 02:54:51;;;;;;;2.33;1.05;;;14.20;99.90;;;;;;1947153;72;22201;-81
2023/04/11 02:57:43;;;;;;;1.95;0.80;;;14.20;99.90;;;;;;1901353;75;21586;-82
2023/04/11 03:00:36;;;;;;;2.02;1.10;;;14.20;99.90;;;;;;1900335;75;21137;-82
2023/04/11 03:03:29;;;;;;;1.92;0.93;;;14.10;99.90;;;;;;1892164;75;21099;-82
2023/04/11 03:06:22;;;;;;;2.27;1.17;;;14.00;99.90;;;;;;1902705;75;21103;-82
2023/04/11 03:09:15;;;;;;;2.77;1.30;;;13.90;99.90;;;;;;1898150;75;21134;-83
2023/04/11 03:14:45;;;;;;;2.77;1.22;;;13.80;99.90;;;;;;1941009;72;22196;-82
2023/04/11 03:17:36;;;;;;;1.45;1.10;;;13.80;99.90;;;;;;1935266;73;21503;-82
2023/04/11 03:20:29;;;;;;;2.50;1.17;;;13.80;99.90;;;;;;1915887;73;21164;-82
2023/04/11 03:23:20;;;;;;;3.42;1.25;;;13.80;99.90;;;;;;1944910;73;21140;-82
2023/04/11 03:26:13;;;;;;;2.08;1.10;;;13.70;99.90;;;;;;1918932;74;21128;-82
2023/04/11 03:29:05;;;;;;;4.33;1.30;;;13.60;99.90;;;;;;1929565;74;21204;-82
2023/04/11 03:31:58;;;;;;;1.90;1.20;;;13.40;99.90;;;;;;1919413;74;21657;-82
2023/04/11 03:34:52;;;;;;;2.00;1.45;;;13.20;99.90;;;;;;1891667;74;21150;-82
2023/04/11 03:37:44;;;;;;;1.70;1.17;;;13.20;99.90;;;;;;1921296;74;21054;-82
2023/04/11 03:43:19;;;;;;;4.87;1.77;;;13.00;99.90;;;;;;1934604;72;22171;-81
2023/04/11 03:46:12;;;;;;;2.70;1.47;;;12.90;99.90;;;;;;1901252;75;21624;-81
2023/04/11 03:49:05;;;;;;;2.75;1.47;;;12.80;99.90;;;;;;1887267;75;21629;-81
2023/04/11 03:54:36;;;;;;;4.05;1.85;;;12.60;99.90;;;;;;1914957;72;22713;-82
2023/04/11 03:57:29;;;;;;;3.22;1.50;;;12.60;99.90;;;;;;1906018;75;21141;-83
2023/04/11 04:00:21;;;;;;;5.03;1.80;;;12.50;99.90;;;;;;1905885;74;21159;-84
2023/04/11 04:05:57;;;;;;;2.58;1.57;;;12.60;99.90;;;;;;1931733;72;22627;-82
2023/04/11 04:08:48;;;;;;;3.15;1.67;;;12.70;99.90;;;;;;1872740;75;21187;-81
2023/04/11 04:11:42;;;;;;;3.12;1.62;;;12.50;99.90;;;;;;1905003;75;21118;-84
2023/04/11 04:14:35;;;;;;;4.53;1.72;;;12.40;99.90;;;;;;1899685;75;21093;-82
2023/04/11 04:17:27;;;;;;;2.98;1.50;;;12.30;99.90;;;;;;1895128;75;21145;-82
2023/04/11 04:23:05;;;;;;;4.15;1.75;;;12.20;99.90;;;;;;1957681;72;22224;-81
2023/04/11 04:26:23;;;;;;;2.85;1.70;;;12.10;99.90;;;;;;1938869;73;21128;-82
2023/04/11 04:31:55;;;;;;;3.75;1.80;;;12.00;99.90;;;;;;1926983;72;22191;-81
2023/04/11 04:34:49;;;;;;;3.10;1.70;;;12.00;99.90;;;;;;1903645;74;21247;-81
2023/04/11 04:37:45;;;;;;;3.42;1.80;;;11.90;99.90;;;;;;1905713;75;21643;-83
2023/04/11 04:40:44;;;;;;;2.45;1.80;;;11.90;99.90;;;;;;1916604;75;21132;-83
2023/04/11 04:43:36;;;;;;;3.72;2.20;;;11.90;99.90;;;;;;1899994;75;21102;-82
2023/04/11 04:49:09;;;;;;;4.05;2.08;;;11.80;99.90;;;;;;1947964;72;22208;-81
2023/04/11 04:54:40;;;;;;;2.60;1.75;;;11.90;99.90;;;;;;1928177;72;22181;-81
2023/04/11 04:57:32;;;;;;;3.05;2.20;;;11.90;99.90;;;;;;1886731;74;21147;-83
2023/04/11 05:00:24;;;;;;;5.50;2.10;;;11.90;99.90;;;;;;1895158;74;21146;-82
2023/04/11 05:03:19;;;;;;;4.40;1.98;;;12.00;99.90;;;;;;1889393;75;21107;-82
2023/04/11 05:06:11;;;;;;;4.10;2.55;;;12.00;99.90;;;;;;1886478;75;21110;-82
2023/04/11 05:11:49;;;;;;;4.15;2.00;;;11.90;99.90;;;;;;1934801;72;22185;-83
2023/04/11 05:14:42;;;;;;;3.72;2.15;;;12.00;99.90;;;;;;1886191;75;21176;-83
2023/04/11 05:17:34;;;;;;;4.17;2.75;;;11.90;99.90;;;;;;1896740;75;21124;-82
2023/04/11 05:20:28;;;;;;;5.10;2.17;;;11.90;99.90;;;;;;1910493;75;21130;-82
2023/04/11 05:23:19;;;;;;;4.42;2.42;;;12.00;99.90;;;;;;1895148;75;21223;-82
2023/04/11 05:26:12;;;;;;;3.90;2.30;;;12.00;99.90;;;;;;1889687;75;21371;-82
2023/04/11 05:29:05;;;;;;;4.28;2.55;;;12.00;99.90;;;;;;1908501;75;21160;-82
2023/04/11 05:31:57;;;;;;;3.55;2.40;;;12.00;99.90;;;;;;1916820;75;21035;-82
2023/04/11 05:34:53;;;;;;;3.77;2.33;;;12.00;99.90;;;;;;1880862;75;21094;-82
2023/04/11 05:37:47;;;;;;;3.92;2.25;;;12.10;99.90;;;;;;1911757;75;21067;-83
2023/04/11 05:43:21;;;;;;;3.72;2.65;;;12.30;99.90;;;;;;1966315;72;22127;-81
2023/04/11 05:49:06;;;;;;;4.10;2.30;;;12.40;99.90;;;;;;1949940;72;22257;-84
2023/04/11 05:54:37;;;;;;;4.62;2.55;;;12.50;99.90;;;;;;1932711;72;22634;-81
2023/04/11 05:57:28;;;;;;;5.47;2.45;;;12.60;99.90;;;;;;1911051;74;21124;-82
2023/04/11 06:00:23;;;;;;;3.58;2.45;;;12.70;99.90;;;;;;1903181;74;21090;-83
2023/04/11 06:03:15;;;;;;;4.12;2.35;;;12.70;99.90;;;;;;1907857;74;21145;-82
2023/04/11 06:08:46;;;;;;;3.22;2.40;;;12.80;99.90;;;;;;1932559;72;22178;-82
2023/04/11 06:11:37;;;;;;;3.02;2.60;;;12.90;99.90;;;;;;1902242;73;21048;-81
2023/04/11 06:14:28;;;;;;;4.20;2.20;;;12.90;99.90;;;;;;1915622;75;21098;-81
2023/04/11 06:20:00;;;;;;;2.77;2.52;;;13.00;99.90;;;;;;1953328;72;22757;-83
2023/04/11 06:22:52;;;;;;;3.98;2.10;;;13.00;99.90;;;;;;1926172;73;21055;-84
2023/04/11 06:28:26;;;;;;;4.33;2.58;;;12.80;99.90;;;;;;1946707;72;22285;-82
2023/04/11 06:31:18;;;;;;;5.47;2.20;;;12.60;99.90;;;;;;1895051;75;21043;-84
2023/04/11 06:36:50;;;;;;;3.40;2.42;;;12.40;99.90;;;;;;1927994;72;22762;-84
2023/04/11 06:39:41;;;;;;;2.95;1.70;;;12.40;99.90;;;;;;1930950;74;21152;-83
2023/04/11 06:42:33;;;;;;;5.60;2.37;;;12.30;99.90;;;;;;1939258;74;21131;-84
2023/04/11 06:45:25;;;;;;;4.90;1.82;;;12.30;99.90;;;;;;1914618;74;21106;-83
2023/04/11 06:48:17;;;;;;;2.80;1.55;;;12.30;99.90;;;;;;1918554;74;21093;-82
2023/04/11 06:51:09;;;;;;;4.45;1.60;;;12.20;99.90;;;;;;1941539;74;21147;-81
2023/04/11 06:54:01;;;;;;;3.98;1.87;;;12.20;99.90;;;;;;1941622;74;21096;-82
2023/04/11 06:59:31;;;;;;;3.02;1.40;;;12.20;99.90;;;;;;1947578;72;22202;-82
2023/04/11 07:02:24;;;;;;;3.80;1.92;;;12.30;99.90;;;;;;1888546;75;21109;-83
2023/04/11 07:05:16;;;;;;;1.50;1.20;;;12.30;99.90;;;;;;1894939;75;21122;-82
2023/04/11 07:10:48;;;;;;;2.02;1.32;;;12.50;99.90;;;;;;1932672;73;23212;-82
2023/04/11 07:13:39;;;;;;;2.45;1.50;;;12.50;99.90;;;;;;1910172;75;21151;-81
2023/04/11 07:16:31;;;;;;;2.50;1.20;;;12.50;99.90;;;;;;1881467;75;21158;-82
2023/04/11 07:19:22;;;;;;;1.77;1.42;;;12.60;99.90;;;;;;1910738;75;21134;-82
2023/04/11 07:22:14;;;;;;;2.77;1.52;;;12.70;99.90;;;;;;1892327;75;21110;-82
2023/04/11 07:25:06;;;;;;;2.72;1.70;;;12.80;99.90;;;;;;1920532;74;21142;-82
2023/04/11 07:27:59;;;;;;;1.55;1.42;;;12.80;99.90;;;;;;1912222;75;21593;-82
2023/04/11 07:30:50;;;;;;;2.02;1.50;;;12.70;99.90;;;;;;1881109;75;21628;-81
2023/04/11 07:33:43;;;;;;;3.15;1.70;;;12.60;99.90;;;;;;1893099;75;21103;-81
2023/04/11 07:36:35;;;;;;;1.82;1.50;;;12.60;99.90;;;;;;1897143;74;21395;-82
2023/04/11 07:39:26;;;;;;;1.65;1.25;;;12.60;99.90;;;;;;1934455;74;21213;-81
2023/04/11 07:42:18;;;;;;;3.05;1.50;;;12.50;99.90;;;;;;1916804;75;21176;-82
2023/04/11 07:45:10;;;;;;;5.62;1.55;;;12.50;99.90;;;;;;1894601;75;21093;-80
2023/04/11 07:48:21;;;;;;;4.15;1.45;;;12.50;99.90;;;;;;1896737;74;21044;-82
2023/04/11 07:51:12;;;;;;;1.87;1.57;;;12.40;99.90;;;;;;1909434;74;21157;-82
2023/04/11 07:56:56;;;;;;;2.50;1.75;;;12.00;99.90;;;;;;1927214;74;21132;-82
2023/04/11 07:59:47;;;;;;;2.30;1.85;;;11.70;99.90;;;;;;1895186;75;21087;-81
2023/04/11 08:02:39;;;;;;;1.50;1.02;;;11.50;99.90;;;;;;1892343;75;21159;-81
2023/04/11 08:05:32;;;;;;;2.77;1.35;;;11.30;99.90;;;;;;1910259;75;21134;-82
2023/04/11 08:08:25;;;;;;;1.95;0.70;;;11.30;99.90;;;;;;1915435;74;21102;-81
2023/04/11 08:11:17;;;;;;;1.52;0.60;;;11.20;99.90;;;;;;1935831;74;21171;-80
2023/04/11 08:14:08;;;;;;;1.25;0.65;;;11.10;99.90;;;;;;1914187;74;21102;-81
2023/04/11 08:17:02;;;;;;;0.50;0.28;;;11.00;99.90;;;;;;1884263;74;21184;-81
2023/04/11 08:19:56;;;;;;;1.32;0.37;;;11.10;99.90;;;;;;1906253;74;21117;-81
2023/04/11 08:22:49;;;;;;;1.55;0.30;;;11.20;99.90;;;;;;1886936;75;21152;-81
2023/04/11 08:25:41;;;;;;;1.07;0.50;;;11.30;99.90;;;;;;1882549;75;21168;-82
2023/04/11 08:28:33;;;;;;;3.65;0.40;;;11.30;99.90;;;;;;1908835;75;21180;-81
2023/04/11 08:31:28;;;;;;;1.32;0.53;;;11.30;99.90;;;;;;1900061;75;21176;-81
2023/04/11 08:34:19;;;;;;;1.07;0.40;;;11.40;99.90;;;;;;1900753;75;21135;-80
2023/04/11 08:37:12;;;;;;;0.95;0.30;;;11.40;99.90;;;;;;1897626;74;21099;-81
2023/04/11 08:40:07;;;;;;;2.75;0.47;;;11.40;99.90;;;;;;1883928;75;21337;-81
2023/04/11 08:43:00;;;;;;;1.92;0.50;;;11.40;99.90;;;;;;1895705;75;21148;-81
2023/04/11 08:46:06;;;;;;;1.85;0.30;;;11.50;99.90;;;;;;1892400;74;21152;-80
2023/04/11 08:49:07;;;;;;;0.93;0.50;;;11.60;99.90;;;;;;1922324;74;21099;-81
2023/04/11 08:52:11;;;;;;;0.98;0.37;;;11.70;99.90;;;;;;1885070;74;21048;-82
2023/04/11 08:55:44;;;;;;;0.90;0.60;;;11.80;99.90;;;;;;1868801;77;21240;-81
2023/04/11 08:58:36;;;;;;;2.27;0.70;;;12.00;99.90;;;;;;1887402;75;21114;-81
2023/04/11 09:01:30;;;;;;;2.17;0.55;;;12.20;99.90;;;;;;1868774;77;21102;-81
2023/04/11 09:07:13;;;;;;;2.08;0.40;;;12.20;99.90;;;;;;1929023;72;22206;-80
2023/04/11 09:10:19;;;;;;;1.02;0.30;;;12.20;99.90;;;;;;1883281;75;21076;-83
2023/04/11 09:16:12;;;;;;;1.10;0.68;;;12.30;99.90;;;;;;1954113;72;22196;-82
2023/04/11 09:19:06;;;;;;;2.17;0.68;;;12.50;99.90;;;;;;1902592;75;21200;-80
2023/04/11 09:22:00;;;;;;;2.08;0.30;;;12.70;99.90;;;;;;1907341;75;21071;-81
2023/04/11 09:25:03;;;;;;;3.12;0.65;;;12.80;99.90;;;;;;1883495;75;21726;-80
2023/04/11 09:28:10;;;;;;;2.25;0.60;;;12.80;99.90;;;;;;1905940;75;21148;-80
2023/04/11 09:31:01;;;;;;;2.08;0.53;;;12.80;99.90;;;;;;1883805;75;21125;-80
2023/04/11 09:34:01;;;;;;;2.17;0.62;;;13.00;99.90;;;;;;1883627;75;21131;-80
2023/04/11 09:36:56;;;;;;;3.02;0.45;;;13.20;99.90;;;;;;1895765;75;21131;-80
2023/04/11 09:40:02;;;;;;;3.83;0.70;;;13.20;99.90;;;;;;1894297;75;21083;-80
2023/04/11 09:45:43;;;;;;;3.42;0.60;;;13.30;99.90;;;;;;1952729;72;22276;-81
2023/04/11 09:48:37;;;;;;;4.05;2.10;;;13.50;99.90;;;;;;1899825;75;22231;-82
2023/04/11 09:51:30;;;;;;;1.55;0.45;;;13.60;99.90;;;;;;1895327;75;21122;-81
2023/04/11 09:54:23;;;;;;;2.92;0.53;;;13.70;99.90;;;;;;1894318;75;21063;-81
2023/04/11 09:57:15;;;;;;;2.67;0.80;;;13.80;99.90;;;;;;1893001;75;21113;-81
2023/04/11 10:00:14;;;;;;;1.40;0.42;;;13.90;99.90;;;;;;1902024;75;21086;-81
2023/04/11 10:03:14;;;;;;;4.35;1.90;;;14.00;99.90;;;;;;1898976;75;21176;-82
2023/04/11 10:06:10;;;;;;;3.62;3.00;;;14.30;99.90;;;;;;1883782;75;21090;-81
2023/04/11 10:09:08;;;;;;;2.45;1.40;;;14.50;99.90;;;;;;1913036;75;21561;-81
2023/04/11 10:11:59;;;;;;;2.55;0.70;;;14.80;99.90;;;;;;1894719;75;21318;-81
2023/04/11 10:14:50;;;;;;;3.17;1.22;;;14.50;99.90;;;;;;1896670;75;21103;-81
2023/04/11 10:17:43;;;;;;;3.95;2.37;;;14.30;99.90;;;;;;1898538;75;21197;-81
2023/04/11 10:20:49;;;;;;;4.45;2.92;;;14.30;99.90;;;;;;1894410;75;21098;-81
2023/04/11 10:24:08;;;;;;;7.67;3.70;;;14.50;99.90;;;;;;1909447;75;21078;-81
2023/04/11 10:27:02;;;;;;;4.67;2.80;;;14.70;99.90;;;;;;1891721;75;21107;-82
2023/04/11 10:29:56;;;;;;;4.55;2.90;;;14.90;99.90;;;;;;1894846;75;21197;-81
2023/04/11 10:33:11;;;;;;;4.22;2.77;;;14.90;99.90;;;;;;1898400;75;21118;-81
2023/04/11 10:36:15;;;;;;;3.33;2.50;;;15.10;99.90;;;;;;1883557;75;21178;-81
2023/04/11 10:39:15;;;;;;;4.15;2.37;;;15.10;99.90;;;;;;1888949;75;21182;-81
2023/04/11 10:42:30;;;;;;;3.85;2.12;;;15.30;99.90;;;;;;1899409;75;21558;-81
2023/04/11 10:45:24;;;;;;;4.30;1.90;;;15.30;99.90;;;;;;1904203;74;21154;-81
2023/04/11 10:48:16;;;;;;;2.58;1.82;;;15.40;99.90;;;;;;1915048;74;21150;-81
2023/04/11 10:51:23;;;;;;;4.17;1.67;;;15.50;99.90;;;;;;1915454;74;21167;-81
2023/04/11 10:54:26;;;;;;;2.52;1.60;;;15.60;99.90;;;;;;1915527;74;21204;-82
2023/04/11 10:57:18;;;;;;;2.30;1.50;;;15.80;99.90;;;;;;1914695;74;21055;-82
2023/04/11 11:00:15;;;;;;;2.70;1.62;;;16.20;99.90;;;;;;1911361;74;21587;-82
2023/04/11 11:06:01;;;;;;;1.62;1.12;;;16.70;99.90;;;;;;1964129;72;22196;-81
2023/04/11 11:08:53;;;;;;;3.33;1.60;;;16.80;99.90;;;;;;1916422;75;21125;-81
2023/04/11 11:11:45;;;;;;;1.82;1.40;;;16.90;99.90;;;;;;1916639;75;21107;-83
2023/04/11 11:14:37;;;;;;;4.10;1.70;;;17.00;99.90;;;;;;1916543;75;21086;-84
2023/04/11 11:17:29;;;;;;;3.00;1.50;;;17.00;99.90;;;;;;1916340;75;21143;-82
2023/04/11 11:20:21;;;;;;;2.25;1.65;;;16.90;99.90;;;;;;1923093;73;21098;-83
2023/04/11 11:23:12;;;;;;;3.42;1.98;;;17.00;99.90;;;;;;1927580;73;21353;-82
2023/04/11 11:26:04;;;;;;;3.52;1.67;;;17.20;99.90;;;;;;1931636;73;21530;-82
2023/04/11 11:28:55;;;;;;;3.35;2.37;;;17.10;99.90;;;;;;1916401;75;21624;-82
2023/04/11 11:31:49;;;;;;;3.87;2.02;;;17.30;99.90;;;;;;1916604;75;21533;-82
2023/04/11 11:34:41;;;;;;;4.25;2.20;;;17.50;99.90;;;;;;1916608;75;21063;-82
2023/04/11 11:37:32;;;;;;;3.37;1.50;;;17.50;99.90;;;;;;1916721;75;21102;-81
2023/04/11 11:40:24;;;;;;;2.65;1.70;;;17.60;99.90;;;;;;1916060;75;21070;-82
2023/04/11 11:43:16;;;;;;;2.75;1.52;;;17.70;99.90;;;;;;1916517;75;21131;-82
2023/04/11 11:46:13;;;;;;;1.98;1.40;;;17.60;99.90;;;;;;1938973;73;21075;-82
2023/04/11 11:49:07;;;;;;;3.85;1.55;;;17.80;99.90;;;;;;1916470;75;21094;-82
2023/04/11 11:51:58;;;;;;;2.47;1.55;;;18.10;99.90;;;;;;1916700;75;21082;-82
2023/04/11 11:54:50;;;;;;;3.33;1.50;;;18.20;99.90;;;;;;1916564;75;21144;-82
2023/04/11 11:57:47;;;;;;;5.10;1.70;;;18.40;99.90;;;;;;1923233;73;21087;-82
2023/04/11 12:00:40;;;;;;;2.50;1.77;;;18.20;99.90;;;;;;1924659;73;21129;-82
2023/04/11 12:06:12;;;;;;;2.58;2.12;;;18.30;99.90;;;;;;1954789;72;22265;-81
2023/04/11 12:09:06;;;;;;;4.85;2.35;;;18.30;99.90;;;;;;1901894;74;21160;-84
2023/04/11 12:14:38;;;;;;;4.40;1.98;;;18.40;99.90;;;;;;1953729;72;22655;-80
2023/04/11 12:20:15;;;;;;;2.60;1.40;;;18.60;99.90;;;;;;1945729;72;22265;-79
2023/04/11 12:23:06;;;;;;;3.30;1.70;;;18.50;99.90;;;;;;1916638;75;21239;-79
2023/04/11 12:25:57;;;;;;;3.20;1.70;;;18.10;99.90;;;;;;1933526;73;21160;-79
2023/04/11 12:28:49;;;;;;;2.55;1.50;;;18.00;99.90;;;;;;1916386;75;21618;-79
2023/04/11 12:31:40;;;;;;;1.98;1.50;;;18.00;99.90;;;;;;1938833;73;21125;-79
2023/04/11 12:34:35;;;;;;;1.62;1.25;;;18.10;99.90;;;;;;1916667;75;21106;-79
2023/04/11 12:37:27;;;;;;;3.15;1.42;;;18.30;99.90;;;;;;1916408;75;21111;-79
2023/04/11 12:40:19;;;;;;;1.62;1.00;;;18.40;99.90;;;;;;1929904;73;21124;-80
2023/04/11 12:43:10;;;;;;;2.40;0.80;;;18.50;99.90;;;;;;1919454;73;21179;-80
2023/04/11 12:46:02;;;;;;;1.75;1.00;;;18.30;99.90;;;;;;1938978;73;21110;-81
2023/04/11 12:48:53;;;;;;;2.17;1.10;;;18.00;99.90;;;;;;1916669;75;21135;-79
2023/04/11 12:51:45;;;;;;;1.85;1.05;;;17.80;99.90;;;;;;1916603;73;21107;-79
2023/04/11 12:54:37;;;;;;;1.82;0.80;;;18.00;99.90;;;;;;1916477;73;21101;-80
2023/04/11 12:57:29;;;;;;;2.85;0.78;;;17.90;99.90;;;;;;1920731;73;21777;-79
2023/04/11 13:00:21;;;;;;;1.80;0.80;;;17.60;99.90;;;;;;1916326;75;21151;-79
2023/04/11 13:05:53;;;;;;;1.72;0.68;;;18.20;99.90;;;;;;1942474;72;22889;-80
2023/04/11 13:08:45;;;;;;;1.80;0.82;;;18.00;99.90;;;;;;1916373;75;21090;-79
2023/04/11 13:11:36;;;;;;;3.65;1.05;;;18.10;99.90;;;;;;1936695;73;21139;-78
2023/04/11 13:14:27;;;;;;;1.17;1.07;;;18.60;99.90;;;;;;1916616;75;21601;-78
2023/04/11 13:17:19;;;;;;;1.27;0.80;;;18.40;99.90;;;;;;1925840;73;21051;-79
2023/04/11 13:20:12;;;;;;;2.40;1.00;;;18.50;99.90;;;;;;1927549;73;21557;-80
2023/04/11 13:23:03;;;;;;;2.87;0.75;;;18.90;99.90;;;;;;1927534;73;21121;-79
2023/04/11 13:25:56;;;;;;;2.02;1.20;;;19.00;99.90;;;;;;1916308;75;21102;-79
2023/04/11 13:28:47;;;;;;;2.40;0.82;;;19.00;99.90;;;;;;1916681;75;21122;-79
2023/04/11 13:31:39;;;;;;;1.07;0.70;;;19.10;99.90;;;;;;1916285;75;21165;-79
2023/04/11 13:34:30;;;;;;;1.00;0.60;;;19.20;99.90;;;;;;1919317;73;21102;-80
2023/04/11 13:37:21;;;;;;;1.00;0.42;;;19.20;99.90;;;;;;1925740;74;21156;-80
2023/04/11 13:40:14;;;;;;;2.55;1.02;;;19.40;99.90;;;;;;1916510;75;21055;-79
2023/04/11 13:43:06;;;;;;;1.27;0.90;;;19.70;99.90;;;;;;1916313;75;21117;-79
2023/04/11 13:45:57;;;;;;;1.27;0.70;;;19.70;99.90;;;;;;1938141;73;21139;-76
2023/04/11 13:51:28;;;;;;;2.70;1.07;;;20.10;99.90;;;;;;1941058;72;22168;-81
2023/04/11 13:54:19;;;;;;;2.75;0.70;;;20.40;99.90;;;;;;1904797;75;21189;-81
2023/04/11 13:57:11;;;;;;;4.40;0.60;;;20.70;99.90;;;;;;1920500;74;21137;-81
2023/04/11 14:00:10;;;;;;;5.25;2.72;;;20.80;99.90;;;;;;1916576;75;21097;-80
2023/04/11 14:03:06;;;;;;;2.20;0.60;;;20.90;99.90;;;;;;1907396;75;21180;-80
2023/04/11 14:05:57;;;;;;;1.50;0.50;;;21.00;99.90;;;;;;1879020;76;21101;-79
2023/04/11 14:12:44;;;;;;;0.42;0.40;;;20.60;99.90;;;;;;1899720;74;21076;-80
2023/04/11 14:15:36;;;;;;;1.87;0.78;;;20.90;99.90;;;;;;1914287;74;21146;-79
2023/04/11 14:21:08;;;;;;;1.70;0.45;;;20.90;99.90;;;;;;1957011;72;22150;-79
2023/04/11 14:23:59;;;;;;;2.35;0.80;;;20.90;99.90;;;;;;1895695;75;21106;-80
2023/04/11 14:26:50;;;;;;;1.02;0.50;;;21.20;99.90;;;;;;1888837;75;21087;-79
2023/04/11 14:29:42;;;;;;;1.40;0.62;;;21.30;99.90;;;;;;1892873;75;21173;-80
2023/04/11 14:32:34;;;;;;;2.05;0.60;;;21.40;99.90;;;;;;1902022;75;21055;-80
2023/04/11 14:35:30;;;;;;;2.55;0.60;;;21.80;99.90;;;;;;1897408;75;21123;-80
2023/04/11 14:38:21;;;;;;;0.90;0.60;;;22.30;99.90;;;;;;1894447;75;21086;-80
2023/04/11 14:41:13;;;;;;;1.35;0.57;;;22.50;99.90;;;;;;1894250;75;21110;-80
2023/04/11 14:46:44;;;;;;;3.02;0.80;;;23.20;99.90;;;;;;1954642;72;22104;-79
2023/04/11 14:49:36;;;;;;;2.33;0.90;;;23.40;99.90;;;;;;1908900;74;21118;-79
2023/04/11 14:52:27;;;;;;;1.25;0.70;;;23.30;99.90;;;;;;1905682;75;21566;-79
2023/04/11 14:55:19;;;;;;;1.30;0.60;;;23.80;99.90;;;;;;1903191;75;21128;-79
2023/04/11 14:58:11;;;;;;;1.52;0.70;;;23.30;99.90;;;;;;1898233;75;21131;-80
2023/04/11 15:01:02;;;;;;;1.12;0.53;;;23.10;99.90;;;;;;1894068;75;21221;-80
2023/04/11 15:03:54;;;;;;;1.15;0.50;;;23.60;99.90;;;;;;1894192;75;21110;-80
2023/04/11 15:06:47;;;;;;;0.70;0.42;;;23.40;99.90;;;;;;1895964;75;21225;-80
2023/04/11 15:09:38;;;;;;;1.90;0.85;;;24.20;99.00;;;;;;1898226;75;21164;-80
2023/04/11 15:12:30;;;;;;;1.42;0.53;;;24.70;96.90;;;;;;1894458;75;21058;-80
2023/04/11 15:15:22;;;;;;;0.88;0.45;;;25.10;96.30;;;;;;1894583;75;21097;-80
2023/04/11 15:18:22;;;;;;;1.72;0.50;;;25.10;95.30;;;;;;1891790;73;21074;-80
2023/04/11 15:21:14;;;;;;;0.78;0.47;;;25.60;94.60;;;;;;1901814;75;21048;-81
2023/04/11 15:24:06;;;;;;;0.45;0.30;;;25.30;92.20;;;;;;1883234;76;21113;-80
2023/04/11 15:26:58;;;;;;;1.37;0.42;;;25.70;92.70;;;;;;1904962;75;21129;-80
2023/04/11 15:29:50;;;;;;;1.37;0.53;;;26.60;90.80;;;;;;1905719;75;21067;-80
2023/04/11 15:32:43;;;;;;;2.00;0.50;;;26.60;89.20;;;;;;1883670;76;21694;-80
2023/04/11 15:35:45;;;;;;;1.27;0.60;;;26.60;88.40;;;;;;1898563;75;21523;-80
2023/04/11 15:38:37;;;;;;;0.75;0.47;;;26.30;88.00;;;;;;1895750;75;21151;-80
2023/04/11 15:41:30;;;;;;;1.30;0.50;;;25.00;88.60;;;;;;1894545;75;21054;-80
2023/04/11 15:44:22;;;;;;;1.42;0.70;;;23.50;90.00;;;;;;1892733;75;21648;-80
2023/04/11 15:47:13;;;;;;;1.22;0.60;;;22.50;91.70;;;;;;1914800;74;21126;-81
2023/04/11 15:50:06;;;;;;;0.88;0.57;;;22.60;92.50;;;;;;1912567;74;21605;-80
2023/04/11 15:52:57;;;;;;;1.90;0.75;;;23.30;91.30;;;;;;1902246;74;21151;-81
2023/04/11 15:55:48;;;;;;;1.60;0.50;;;23.30;86.80;;;;;;1921579;74;21071;-80
2023/04/11 15:58:40;;;;;;;1.35;0.60;;;23.70;83.20;;;;;;1898747;74;21581;-80
2023/04/11 16:01:32;;;;;;;2.17;0.57;;;23.00;82.50;;;;;;1898822;75;21129;-80
2023/04/11 16:04:24;;;;;;;3.20;0.72;;;22.80;82.70;;;;;;1909057;74;21626;-80
2023/04/11 16:07:17;;;;;;;3.15;0.80;;;23.00;83.20;;;;;;1926743;74;21168;-80
2023/04/11 16:10:12;;;;;;;1.92;0.80;;;22.60;84.40;;;;;;1920960;74;21098;-80
2023/04/11 16:13:04;;;;;;;1.82;0.80;;;21.90;86.20;;;;;;1898724;75;21205;-80
2023/04/11 16:15:55;;;;;;;2.60;0.65;;;21.20;89.40;;;;;;1898635;74;21072;-81
2023/04/11 16:18:46;;;;;;;2.08;0.80;;;21.10;92.10;;;;;;1906256;74;21735;-81
2023/04/11 16:21:38;;;;;;;1.55;0.70;;;21.00;93.40;;;;;;1908216;74;21091;-80
2023/04/11 16:24:30;;;;;;;1.65;0.70;;;20.50;94.40;;;;;;1917671;74;21482;-80
2023/04/11 16:27:22;;;;;;;1.45;0.68;;;20.00;96.30;;;;;;1912515;74;21516;-80
2023/04/11 16:30:14;;;;;;;1.75;0.72;;;19.70;96.80;;;;;;1924209;74;21109;-80
2023/04/11 16:33:06;;;;;;;1.60;0.62;;;19.70;97.80;;;;;;1921493;74;21165;-79
2023/04/11 16:35:58;;;;;;;3.22;0.90;;;19.40;98.80;;;;;;1919462;74;21102;-80
2023/04/11 16:38:49;;;;;;;1.67;0.57;;;19.50;99.00;;;;;;1916760;74;21136;-80
2023/04/11 16:41:41;;;;;;;1.30;0.65;;;19.40;99.40;;;;;;1881500;76;21158;-79
2023/04/11 16:44:32;;;;;;;2.12;1.00;;;19.30;99.90;;;;;;1847597;77;21169;-80
2023/04/11 16:47:24;;;;;;;2.15;0.82;;;19.10;99.90;;;;;;1849314;77;21137;-79
2023/04/11 16:50:17;;;;;;;3.30;0.65;;;18.90;99.90;;;;;;1839266;78;21123;-80
2023/04/11 16:53:08;;;;;;;1.62;0.50;;;18.80;99.90;;;;;;1846416;77;21392;-80
2023/04/11 16:55:59;;;;;;;2.05;0.60;;;18.50;99.90;;;;;;1847722;77;21099;-80
2023/04/11 16:58:51;;;;;;;1.30;0.75;;;18.20;99.90;;;;;;1848963;77;21178;-80
2023/04/11 17:04:21;;;;;;;2.27;0.80;;;18.20;99.90;;;;;;1941350;72;22232;-79
2023/04/11 17:07:13;;;;;;;4.12;0.93;;;18.10;99.90;;;;;;1894017;75;21074;-80
2023/04/11 17:10:07;;;;;;;2.15;0.80;;;18.10;99.90;;;;;;1920967;74;21088;-80
2023/04/11 17:13:00;;;;;;;2.55;0.90;;;18.00;99.90;;;;;;1901310;75;21097;-79